Time;durP1;ratioP1;P1;durP2;ratioP2;P2;SDS_P1;SDS_P2;PMS_P1;PMS_P2;Temp;Humidity;BMP_temperature;BMP_pressure;BME280_temperature;BME280_humidity;BME280_pressure;Samples;Min_cycle;Max_cycle;Signal;HPM_P1;HPM_P2
2021/03/13 00:00:21;;;;;;;5.75;1.48;;;;;;;14.05;41.63;98080.16;5072549;28;20028;-78
2021/03/13 00:02:49;;;;;;;10.25;1.90;;;;;;;13.83;42.05;98087.72;5070899;28;20507;-79
2021/03/13 00:05:27;;;;;;;3.85;1.05;;;;;;;13.91;42.14;98098.69;5070919;28;20028;-79
2021/03/13 00:07:52;;;;;;;3.17;1.20;;;;;;;14.30;41.44;98099.25;5072363;28;20024;-80
2021/03/13 00:10:18;;;;;;;3.22;1.88;;;;;;;14.32;41.38;98094.13;5072398;28;20085;-80
2021/03/13 00:12:44;;;;;;;6.30;1.65;;;;;;;14.31;41.67;98108.28;5072445;28;20025;-80
2021/03/13 00:15:14;;;;;;;2.13;1.08;;;;;;;14.49;41.13;98102.69;5072366;28;20379;-80
2021/03/13 00:17:45;;;;;;;3.60;1.00;;;;;;;14.17;41.71;98109.13;5071612;28;20029;-80
2021/03/13 00:20:13;;;;;;;2.03;0.90;;;;;;;14.59;40.84;98096.38;5072468;28;20020;-80
2021/03/13 00:22:38;;;;;;;1.27;0.98;;;;;;;14.25;41.57;98098.88;5072386;28;20390;-80
2021/03/13 00:25:06;;;;;;;3.05;1.20;;;;;;;14.11;41.84;98100.53;5074704;28;20036;-80
2021/03/13 00:27:32;;;;;;;2.47;0.85;;;;;;;14.56;40.71;98091.66;5076375;28;20024;-80
2021/03/13 00:29:58;;;;;;;5.40;1.10;;;;;;;13.87;42.33;98093.97;5076373;28;20050;-80
2021/03/13 00:32:24;;;;;;;3.83;1.58;;;;;;;14.40;40.80;98105.84;5076277;28;20025;-80
2021/03/13 00:34:51;;;;;;;4.05;1.25;;;;;;;14.44;40.78;98104.66;5076281;28;20364;-80
2021/03/13 00:37:17;;;;;;;3.03;1.35;;;;;;;14.51;40.57;98106.63;5076283;28;20101;-80
2021/03/13 00:39:43;;;;;;;3.53;1.20;;;;;;;14.35;41.04;98098.03;5076191;28;20425;-80
2021/03/13 00:42:08;;;;;;;4.38;1.20;;;;;;;13.98;41.69;98115.09;5076050;28;20216;-79
2021/03/13 00:44:34;;;;;;;5.65;1.60;;;;;;;13.84;42.27;98116.75;5074769;28;20421;-81
2021/03/13 00:46:59;;;;;;;5.82;1.95;;;;;;;13.89;42.46;98116.31;5075451;28;20034;-80
2021/03/13 00:49:25;;;;;;;7.30;1.40;;;;;;;13.87;42.46;98117.91;5075318;28;20052;-80
2021/03/13 00:51:51;;;;;;;5.80;1.88;;;;;;;14.10;42.18;98120.94;5075353;28;20052;-80
2021/03/13 00:54:16;;;;;;;3.65;1.35;;;;;;;14.34;41.78;98134.94;5075223;28;20032;-79
2021/03/13 00:56:42;;;;;;;2.33;1.10;;;;;;;14.23;41.87;98134.22;5075113;28;20037;-80
2021/03/13 00:59:07;;;;;;;7.53;1.25;;;;;;;14.57;41.00;98153.66;5075126;28;20035;-79
2021/03/13 01:01:33;;;;;;;4.07;1.23;;;;;;;14.48;41.39;98139.59;5074790;28;20052;-80
2021/03/13 01:03:58;;;;;;;5.70;1.55;;;;;;;14.26;42.01;98152.63;5074900;28;20033;-80
2021/03/13 01:06:24;;;;;;;3.55;1.05;;;;;;;14.04;42.44;98132.72;5075065;28;20032;-80
2021/03/13 01:08:49;;;;;;;4.55;1.30;;;;;;;14.32;42.17;98142.78;5074902;28;20036;-81
2021/03/13 01:11:15;;;;;;;4.32;1.20;;;;;;;14.56;41.72;98149.34;5074877;28;20033;-80
2021/03/13 01:13:41;;;;;;;4.45;1.20;;;;;;;14.61;41.32;98144.22;5074861;28;20115;-80
2021/03/13 01:16:06;;;;;;;3.40;1.15;;;;;;;14.63;41.03;98146.56;5074721;28;20054;-80
2021/03/13 01:18:32;;;;;;;4.95;1.17;;;;;;;14.54;41.62;98140.75;5074718;28;20414;-80
2021/03/13 01:20:58;;;;;;;3.38;1.40;;;;;;;14.64;41.28;98142.63;5074660;28;20082;-80
2021/03/13 01:23:24;;;;;;;7.35;1.60;;;;;;;14.60;41.40;98136.38;5074674;28;20103;-80
2021/03/13 01:25:49;;;;;;;8.98;2.53;;;;;;;14.60;41.16;98147.38;5074456;28;20039;-80
2021/03/13 01:28:15;;;;;;;4.45;1.50;;;;;;;14.84;40.69;98146.41;5074396;28;20063;-80
2021/03/13 01:30:41;;;;;;;1.88;1.05;;;;;;;14.28;41.81;98148.31;5074353;28;20517;-80
2021/03/13 01:33:07;;;;;;;3.83;1.08;;;;;;;14.33;41.47;98145.13;5074336;28;20024;-80
2021/03/13 01:35:33;;;;;;;5.25;1.60;;;;;;;14.22;41.62;98136.19;5073979;28;20031;-81
2021/03/13 01:37:59;;;;;;;6.18;1.10;;;;;;;14.49;41.09;98143.91;5074283;28;20115;-80
2021/03/13 01:40:25;;;;;;;5.38;1.42;;;;;;;14.76;40.59;98155.13;5074328;28;20124;-80
2021/03/13 01:42:51;;;;;;;4.38;1.25;;;;;;;14.10;41.92;98145.63;5074686;28;20102;-80
2021/03/13 01:45:19;;;;;;;3.95;1.10;;;;;;;14.00;42.26;98149.22;5074947;28;20028;-80
2021/03/13 01:47:45;;;;;;;5.00;1.00;;;;;;;13.81;42.52;98175.16;5074842;28;20052;-80
2021/03/13 01:50:13;;;;;;;3.40;1.75;;;;;;;14.19;41.50;98158.16;5074922;28;20089;-80
2021/03/13 01:52:39;;;;;;;3.53;1.10;;;;;;;14.02;42.02;98148.81;5074730;28;20032;-80
2021/03/13 01:55:11;;;;;;;3.38;0.80;;;;;;;13.86;42.48;98144.56;5074699;28;20032;-80
2021/03/13 01:57:36;;;;;;;1.58;0.93;;;;;;;13.85;42.54;98158.69;5074732;28;20094;-80
2021/03/13 02:00:05;;;;;;;3.42;1.20;;;;;;;14.32;41.11;98165.56;5074677;28;20033;-79
2021/03/13 02:02:31;;;;;;;4.03;0.70;;;;;;;13.73;42.85;98159.88;5073958;28;20133;-80
2021/03/13 02:04:56;;;;;;;5.45;1.48;;;;;;;14.04;42.37;98168.41;5073571;28;20034;-80
2021/03/13 02:07:32;;;;;;;7.03;1.35;;;;;;;14.10;42.05;98177.81;5074285;28;20021;-80
2021/03/13 02:10:14;;;;;;;4.68;0.95;;;;;;;13.88;42.32;98172.38;5090075;28;20060;-80
2021/03/13 02:12:56;;;;;;;3.53;1.02;;;;;;;14.14;41.80;98182.13;5074420;28;20471;-80
2021/03/13 02:15:41;;;;;;;5.07;0.80;;;;;;;13.90;42.33;98182.97;5074392;28;20055;-80
2021/03/13 02:18:39;;;;;;;3.38;1.25;;;;;;;13.60;43.05;98197.16;5074376;28;20024;-80
2021/03/13 02:21:09;;;;;;;1.65;0.80;;;;;;;14.04;41.91;98195.88;5032395;28;20047;-80
2021/03/13 02:23:54;;;;;;;2.50;0.88;;;;;;;14.19;41.87;98189.16;5074177;28;20028;-80
2021/03/13 02:26:44;;;;;;;1.92;1.10;;;;;;;13.89;42.28;98195.91;5072831;28;20068;-79
2021/03/13 02:29:15;;;;;;;2.08;0.88;;;;;;;14.02;41.86;98196.28;5072759;28;20079;-80
2021/03/13 02:31:46;;;;;;;2.90;1.13;;;;;;;14.01;42.22;98202.16;5074074;28;20029;-80
2021/03/13 02:34:15;;;;;;;3.55;0.77;;;;;;;13.95;42.31;98192.78;5073923;28;20035;-80
2021/03/13 02:36:42;;;;;;;2.00;0.70;;;;;;;13.86;42.21;98196.72;5073957;28;20086;-80
2021/03/13 02:39:08;;;;;;;3.17;0.80;;;;;;;13.51;43.44;98207.75;5073921;28;20526;-80
2021/03/13 02:41:42;;;;;;;3.88;0.80;;;;;;;13.51;43.19;98203.03;5073846;28;20107;-81
2021/03/13 02:44:09;;;;;;;3.22;0.90;;;;;;;13.84;42.92;98212.03;5073784;28;20028;-80
2021/03/13 02:46:40;;;;;;;6.15;1.10;;;;;;;14.30;41.56;98219.34;5073070;28;20036;-80
2021/03/13 02:49:07;;;;;;;3.33;0.85;;;;;;;14.24;41.87;98218.16;5073666;28;20020;-80
2021/03/13 02:51:35;;;;;;;1.02;0.55;;;;;;;14.21;41.88;98225.25;5073642;28;20039;-80
2021/03/13 02:54:01;;;;;;;3.15;0.85;;;;;;;13.94;42.37;98230.41;5073555;28;20036;-80
2021/03/13 02:56:27;;;;;;;3.53;0.80;;;;;;;13.41;43.33;98236.75;5073439;28;20028;-79
2021/03/13 02:58:55;;;;;;;4.22;1.35;;;;;;;13.19;43.86;98244.16;5072101;28;20033;-79
2021/03/13 03:01:26;;;;;;;3.58;1.08;;;;;;;13.92;42.41;98252.00;5073283;28;20044;-80
2021/03/13 03:03:52;;;;;;;4.28;1.00;;;;;;;13.54;43.25;98248.13;5073408;28;20025;-80
2021/03/13 03:06:19;;;;;;;3.13;0.65;;;;;;;13.79;42.80;98253.59;5073094;28;20025;-80
2021/03/13 03:08:47;;;;;;;2.50;0.82;;;;;;;14.15;41.78;98249.59;5073397;28;20028;-80
2021/03/13 03:11:15;;;;;;;3.22;0.80;;;;;;;13.92;42.07;98271.22;5072939;28;20523;-80
2021/03/13 03:13:41;;;;;;;0.63;0.63;;;;;;;13.84;42.40;98264.19;5073263;28;20028;-80
2021/03/13 03:16:07;;;;;;;1.13;0.60;;;;;;;13.92;42.46;98273.97;5073172;28;20020;-80
2021/03/13 03:18:34;;;;;;;0.60;0.40;;;;;;;14.23;41.44;98272.31;5071887;28;20059;-79
2021/03/13 03:21:01;;;;;;;0.95;0.68;;;;;;;13.51;43.06;98287.31;5072449;28;20037;-82
2021/03/13 03:23:27;;;;;;;2.35;0.70;;;;;;;13.46;43.21;98287.72;5072387;28;20033;-80
2021/03/13 03:25:54;;;;;;;2.97;0.77;;;;;;;13.96;42.00;98291.19;5072400;28;20032;-80
2021/03/13 03:28:21;;;;;;;0.57;0.35;;;;;;;13.33;43.67;98303.75;5072241;28;20028;-81
2021/03/13 03:30:49;;;;;;;2.22;0.57;;;;;;;13.98;42.47;98310.00;5072927;28;20024;-80
2021/03/13 03:33:15;;;;;;;0.63;0.45;;;;;;;13.66;43.11;98291.63;5071669;28;20434;-80
2021/03/13 03:35:42;;;;;;;2.67;0.50;;;;;;;14.00;42.40;98313.94;5072867;28;20056;-80
2021/03/13 03:38:09;;;;;;;0.80;0.60;;;;;;;13.80;43.01;98321.81;5072913;28;20378;-81
2021/03/13 03:40:35;;;;;;;2.25;1.58;;;;;;;14.06;42.49;98330.81;5072834;28;20060;-80
2021/03/13 03:43:12;;;;;;;1.35;0.68;;;;;;;13.70;42.83;98344.56;5072697;28;20067;-80
2021/03/13 03:45:39;;;;;;;2.20;0.60;;;;;;;14.04;42.46;98333.94;5072686;28;20043;-81
2021/03/13 03:48:09;;;;;;;3.58;0.50;;;;;;;13.87;43.05;98327.28;5072707;28;20033;-80
2021/03/13 03:50:36;;;;;;;3.72;0.57;;;;;;;13.94;42.93;98344.94;5072709;28;20471;-80
2021/03/13 03:53:04;;;;;;;2.55;0.80;;;;;;;14.24;42.13;98361.78;5072601;28;20028;-80
2021/03/13 03:55:31;;;;;;;0.55;0.50;;;;;;;14.33;42.14;98358.63;5072639;28;20043;-80
2021/03/13 03:57:57;;;;;;;0.98;0.57;;;;;;;13.52;43.83;98355.50;5072569;28;20031;-80
2021/03/13 04:00:25;;;;;;;1.83;0.40;;;;;;;13.18;44.97;98379.69;5072429;28;20056;-80
2021/03/13 04:02:54;;;;;;;1.17;0.68;;;;;;;13.93;42.83;98395.53;5072592;28;20387;-79
2021/03/13 04:05:20;;;;;;;1.27;0.57;;;;;;;13.74;43.47;98399.44;5072480;28;20059;-80
2021/03/13 04:07:46;;;;;;;3.05;0.40;;;;;;;14.04;42.63;98401.78;5072545;28;20033;-80
2021/03/13 04:10:14;;;;;;;1.80;0.80;;;;;;;14.32;42.06;98407.28;5072594;28;20027;-79
2021/03/13 04:12:42;;;;;;;4.22;1.13;;;;;;;13.79;42.75;98413.56;5072529;28;20029;-80
2021/03/13 04:15:10;;;;;;;1.25;0.57;;;;;;;13.58;43.09;98405.28;5072508;28;20494;-81
2021/03/13 04:17:38;;;;;;;4.00;1.38;;;;;;;14.14;41.93;98423.78;5072343;28;20044;-80
2021/03/13 04:20:06;;;;;;;2.42;0.80;;;;;;;13.70;42.64;98429.63;5072364;28;20021;-79
2021/03/13 04:22:32;;;;;;;4.30;0.93;;;;;;;14.21;41.54;98436.72;5072417;28;20039;-80
2021/03/13 04:25:00;;;;;;;2.88;0.60;;;;;;;13.94;42.01;98435.53;5072308;28;20029;-80
2021/03/13 04:27:25;;;;;;;1.67;0.68;;;;;;;13.71;42.64;98469.63;5072319;28;20016;-80
2021/03/13 04:29:51;;;;;;;2.97;0.60;;;;;;;13.89;42.06;98475.91;5072415;28;20031;-80
2021/03/13 04:32:18;;;;;;;1.75;0.63;;;;;;;13.91;41.96;98486.53;5072232;28;20028;-80
2021/03/13 04:34:45;;;;;;;2.40;0.70;;;;;;;14.06;41.41;98492.81;5072216;28;20493;-80
2021/03/13 04:37:11;;;;;;;4.25;0.70;;;;;;;13.84;41.79;98492.78;5072147;28;20483;-80
2021/03/13 04:39:39;;;;;;;0.90;0.43;;;;;;;13.77;42.00;98501.00;5072190;28;20474;-80
2021/03/13 04:42:06;;;;;;;2.30;0.70;;;;;;;13.52;42.26;98528.34;5072250;28;20043;-80
2021/03/13 04:44:32;;;;;;;1.70;0.70;;;;;;;13.43;42.49;98527.91;5071667;28;20028;-80
2021/03/13 04:46:59;;;;;;;2.65;1.10;;;;;;;13.42;42.32;98542.03;5071532;28;20107;-80
2021/03/13 04:49:25;;;;;;;1.88;0.57;;;;;;;13.75;41.46;98561.00;5071576;28;20077;-81
2021/03/13 04:51:51;;;;;;;2.28;0.68;;;;;;;13.23;42.40;98562.31;5071411;28;20032;-80
2021/03/13 04:54:16;;;;;;;1.15;0.80;;;;;;;13.53;42.03;98573.84;5071382;28;20033;-80
2021/03/13 04:56:42;;;;;;;2.67;0.70;;;;;;;12.89;43.51;98598.06;5071395;28;20017;-79
2021/03/13 04:59:09;;;;;;;2.40;0.55;;;;;;;13.27;42.61;98587.78;5071288;28;20055;-81
2021/03/13 05:01:34;;;;;;;1.70;0.80;;;;;;;13.42;42.21;98605.09;5071164;28;20099;-80
2021/03/13 05:04:00;;;;;;;6.28;1.35;;;;;;;13.40;42.61;98611.00;5071139;28;20032;-80
2021/03/13 05:06:25;;;;;;;1.45;0.55;;;;;;;13.28;42.80;98612.06;5071235;28;20028;-80
2021/03/13 05:08:51;;;;;;;3.60;0.65;;;;;;;12.99;43.62;98629.47;5071115;28;20100;-80
2021/03/13 05:11:17;;;;;;;4.20;0.80;;;;;;;13.49;42.43;98625.16;5073596;28;20024;-80
2021/03/13 05:13:43;;;;;;;5.75;0.82;;;;;;;13.17;43.10;98629.63;5074763;28;20024;-80
2021/03/13 05:16:09;;;;;;;5.40;0.90;;;;;;;13.56;42.36;98638.13;5074817;28;20103;-80
2021/03/13 05:18:34;;;;;;;2.13;0.50;;;;;;;13.73;41.64;98642.91;5074566;28;20112;-80
2021/03/13 05:21:01;;;;;;;3.35;0.80;;;;;;;13.81;41.75;98651.97;5074511;28;20023;-80
2021/03/13 05:23:26;;;;;;;1.70;0.60;;;;;;;13.55;42.13;98667.50;5075207;28;20028;-80
2021/03/13 05:25:52;;;;;;;3.30;0.60;;;;;;;13.30;42.51;98672.84;5075264;28;20032;-80
2021/03/13 05:28:18;;;;;;;2.80;0.73;;;;;;;13.13;43.17;98680.88;5074995;28;20020;-80
2021/03/13 05:30:44;;;;;;;2.42;0.68;;;;;;;13.28;42.67;98686.13;5072307;28;20039;-80
2021/03/13 05:33:09;;;;;;;4.30;0.90;;;;;;;12.98;43.43;98699.97;5075002;28;20033;-80
2021/03/13 05:35:37;;;;;;;2.88;1.10;;;;;;;13.09;43.03;98710.25;5073901;28;20107;-79
2021/03/13 05:38:04;;;;;;;1.92;0.70;;;;;;;13.14;43.57;98701.66;5074994;28;20028;-80
2021/03/13 05:40:30;;;;;;;2.55;0.65;;;;;;;13.02;43.63;98708.22;5075048;28;20028;-80
2021/03/13 05:42:56;;;;;;;0.98;0.57;;;;;;;12.70;44.18;98699.72;5074996;28;20166;-80
2021/03/13 05:45:21;;;;;;;2.70;0.88;;;;;;;12.82;44.00;98713.13;5074946;28;20123;-80
2021/03/13 05:47:47;;;;;;;2.65;0.63;;;;;;;13.35;42.55;98736.72;5075017;28;20032;-80
2021/03/13 05:50:16;;;;;;;3.05;0.60;;;;;;;12.41;44.79;98734.22;5074269;28;20495;-80
2021/03/13 05:52:46;;;;;;;4.70;1.10;;;;;;;12.71;44.12;98737.69;5073725;28;20025;-79
2021/03/13 05:55:12;;;;;;;2.25;0.60;;;;;;;13.13;43.14;98760.41;5074816;28;20028;-80
2021/03/13 05:57:38;;;;;;;5.10;0.70;;;;;;;13.27;42.60;98761.34;5074660;28;20162;-80
2021/03/13 06:00:06;;;;;;;3.90;0.70;;;;;;;13.03;43.12;98767.38;5074765;28;20390;-80
2021/03/13 06:02:32;;;;;;;2.50;0.90;;;;;;;13.11;42.87;98773.72;5074482;28;20040;-80
2021/03/13 06:04:58;;;;;;;0.30;0.30;;;;;;;12.76;43.79;98770.22;5074605;28;20036;-80
2021/03/13 06:07:25;;;;;;;3.40;0.70;;;;;;;13.41;42.12;98776.38;5074535;28;20024;-80
2021/03/13 06:09:53;;;;;;;0.85;0.32;;;;;;;13.32;42.44;98782.16;5074511;28;20029;-80
2021/03/13 06:12:19;;;;;;;1.70;0.88;;;;;;;12.69;43.20;98802.22;5074580;28;20027;-80
2021/03/13 06:14:49;;;;;;;2.55;1.50;;;;;;;12.75;43.29;98806.22;5074440;28;20028;-79
2021/03/13 06:17:15;;;;;;;6.15;0.70;;;;;;;13.09;42.40;98801.50;5074399;28;20493;-80
2021/03/13 06:19:52;;;;;;;1.05;0.40;;;;;;;12.59;43.82;98803.69;5074281;28;20032;-80
2021/03/13 06:22:41;;;;;;;0.43;0.30;;;;;;;12.71;43.79;98808.16;5073228;28;20036;-80
2021/03/13 06:25:12;;;;;;;1.35;0.30;;;;;;;13.19;42.65;98806.31;5074109;28;20033;-80
2021/03/13 06:27:38;;;;;;;1.38;0.40;;;;;;;13.05;43.02;98809.69;5074140;28;20033;-79
2021/03/13 06:30:08;;;;;;;1.35;0.50;;;;;;;12.86;43.45;98814.59;5074111;28;20031;-80
2021/03/13 06:32:34;;;;;;;1.70;0.47;;;;;;;13.31;42.15;98819.00;5074098;28;20029;-80
2021/03/13 06:35:19;;;;;;;1.08;0.73;;;;;;;12.62;43.67;98827.63;5073938;28;20562;-80
2021/03/13 06:37:45;;;;;;;2.35;0.65;;;;;;;13.17;42.38;98835.28;5074009;28;20028;-80
2021/03/13 06:40:24;;;;;;;0.85;0.40;;;;;;;13.13;42.43;98848.16;5074004;28;20024;-80
2021/03/13 06:42:50;;;;;;;2.57;0.60;;;;;;;13.08;42.67;98854.00;5073896;28;20474;-80
2021/03/13 06:45:18;;;;;;;1.95;0.70;;;;;;;12.73;43.70;98877.06;5072425;28;20071;-80
2021/03/13 06:47:44;;;;;;;3.58;0.60;;;;;;;12.92;43.27;98865.16;5073708;28;20548;-80
2021/03/13 06:50:12;;;;;;;5.07;0.95;;;;;;;13.07;42.84;98872.38;5073645;28;20032;-80
2021/03/13 06:52:43;;;;;;;3.10;0.85;;;;;;;13.05;42.74;98875.50;5073663;28;20395;-80
2021/03/13 06:55:16;;;;;;;5.38;0.90;;;;;;;13.26;42.25;98890.63;5073600;28;20099;-80
2021/03/13 06:57:43;;;;;;;2.85;0.75;;;;;;;13.24;42.25;98892.97;5073545;28;20024;-80
2021/03/13 07:00:09;;;;;;;1.38;0.90;;;;;;;13.32;42.25;98905.59;5073523;28;20039;-80
2021/03/13 07:02:38;;;;;;;4.65;0.90;;;;;;;13.60;41.66;98903.16;5073248;28;20045;-84
2021/03/13 07:05:09;;;;;;;6.00;1.00;;;;;;;13.24;42.98;98915.72;5071968;28;20394;-79
2021/03/13 07:07:35;;;;;;;4.32;0.88;;;;;;;13.24;42.58;98920.41;5073351;28;20103;-80
2021/03/13 07:10:06;;;;;;;2.70;1.00;;;;;;;13.51;42.11;98918.31;5072116;28;20448;-80
2021/03/13 07:12:40;;;;;;;7.78;1.15;;;;;;;13.27;42.47;98914.94;5073105;28;20112;-80
2021/03/13 07:15:26;;;;;;;6.82;1.27;;;;;;;13.18;42.62;98939.09;5073205;28;20025;-80
2021/03/13 07:17:59;;;;;;;4.68;0.95;;;;;;;13.62;41.51;98924.72;5071673;28;20028;-80
2021/03/13 07:20:30;;;;;;;4.75;1.23;;;;;;;13.62;41.59;98929.44;5072794;28;20103;-80
2021/03/13 07:23:01;;;;;;;1.88;0.57;;;;;;;13.22;42.44;98931.72;5073124;28;20029;-80
2021/03/13 07:25:28;;;;;;;2.47;0.50;;;;;;;13.54;41.75;98939.53;5072994;28;20033;-80
2021/03/13 07:27:58;;;;;;;4.03;1.20;;;;;;;13.18;42.29;98963.00;5073010;28;20059;-80
2021/03/13 07:30:26;;;;;;;3.45;1.02;;;;;;;13.24;42.15;98961.53;5073041;28;20078;-80
2021/03/13 07:32:58;;;;;;;5.15;1.13;;;;;;;12.82;43.19;98948.81;5071648;28;20030;-80
2021/03/13 07:35:27;;;;;;;1.30;0.88;;;;;;;13.20;42.68;98955.22;5071014;28;20031;-81
2021/03/13 07:37:55;;;;;;;2.42;0.70;;;;;;;13.40;42.17;98962.13;5071247;28;20028;-80
2021/03/13 07:40:22;;;;;;;4.13;1.08;;;;;;;12.92;43.18;98953.69;5072772;28;20522;-83
2021/03/13 07:42:49;;;;;;;2.70;0.95;;;;;;;12.73;43.33;98949.09;5072947;28;20028;-80
2021/03/13 07:45:16;;;;;;;2.15;0.60;;;;;;;12.91;43.55;98945.81;5063324;28;20047;-80
2021/03/13 07:47:43;;;;;;;0.90;0.40;;;;;;;13.32;42.61;98953.03;5057014;28;20027;-81
2021/03/13 07:50:11;;;;;;;2.60;0.73;;;;;;;13.60;41.61;98973.69;5056216;28;20039;-80
2021/03/13 07:52:38;;;;;;;4.60;0.73;;;;;;;13.41;42.10;98973.88;5056962;28;20375;-81
2021/03/13 07:55:08;;;;;;;1.17;0.50;;;;;;;13.72;41.35;98983.63;5056327;28;20487;-79
2021/03/13 07:57:35;;;;;;;1.08;0.30;;;;;;;13.84;40.93;98999.84;5054818;28;20907;-80
2021/03/13 08:00:02;;;;;;;5.10;1.13;;;;;;;13.89;40.81;99002.22;5056498;28;20021;-80
2021/03/13 08:02:28;;;;;;;2.60;0.60;;;;;;;13.00;42.84;99012.13;5056414;28;20483;-83
2021/03/13 08:04:58;;;;;;;3.03;0.60;;;;;;;13.42;41.93;99024.84;5055615;28;20024;-85
2021/03/13 08:07:28;;;;;;;2.67;0.80;;;;;;;13.58;41.35;99028.97;5056304;28;20108;-80
2021/03/13 08:09:55;;;;;;;2.10;0.75;;;;;;;13.64;41.29;99040.41;5055490;28;20024;-81
2021/03/13 08:12:41;;;;;;;0.70;0.55;;;;;;;13.24;42.12;99028.16;5055593;28;20024;-78
2021/03/13 08:15:33;;;;;;;1.83;0.63;;;;;;;13.39;41.46;99042.84;5048241;28;20052;-83
2021/03/13 08:18:00;;;;;;;2.15;0.82;;;;;;;13.23;42.01;99036.75;5057811;28;20013;-88
2021/03/13 08:20:33;;;;;;;2.70;0.70;;;;;;;13.39;41.58;99036.56;5072693;28;20483;-84
2021/03/13 08:23:13;;;;;;;3.05;0.75;;;;;;;13.44;41.32;99058.16;5072446;28;20482;-86
2021/03/13 08:25:59;;;;;;;3.50;1.27;;;;;;;13.78;40.74;99059.78;5071424;28;20078;-86
2021/03/13 08:28:57;;;;;;;2.72;0.95;;;;;;;13.67;41.02;99069.81;5064681;28;20090;-87
2021/03/13 08:31:23;;;;;;;3.80;0.95;;;;;;;13.49;41.53;99082.53;5022415;28;20520;-80
2021/03/13 08:33:56;;;;;;;6.25;1.10;;;;;;;13.58;41.46;99083.06;5057246;28;20107;-88
2021/03/13 08:36:27;;;;;;;7.25;1.23;;;;;;;13.98;40.90;99089.78;5053983;28;20486;-78
2021/03/13 08:38:56;;;;;;;3.70;0.90;;;;;;;14.08;40.66;99098.16;5056128;28;20029;-83
2021/03/13 08:41:43;;;;;;;4.68;1.13;;;;;;;13.70;41.22;99107.53;5056135;28;20024;-79
2021/03/13 08:44:11;;;;;;;6.55;1.52;;;;;;;13.71;41.64;99102.81;5054097;28;20123;-87
2021/03/13 08:46:44;;;;;;;5.53;1.20;;;;;;;13.88;41.23;99121.47;5057125;28;20024;-81
2021/03/13 08:49:30;;;;;;;7.85;1.27;;;;;;;13.68;41.34;99115.34;5057398;28;20119;-82
2021/03/13 08:52:05;;;;;;;5.00;1.20;;;;;;;14.03;40.33;99116.91;5057191;28;20024;-85
2021/03/13 08:54:46;;;;;;;5.82;1.10;;;;;;;14.20;40.28;99124.56;5057933;28;20031;-83
2021/03/13 08:57:23;;;;;;;5.43;1.38;;;;;;;14.26;39.96;99136.78;5060040;28;20521;-80
2021/03/13 08:59:55;;;;;;;5.13;1.02;;;;;;;14.38;39.70;99133.78;5057897;28;20081;-82
2021/03/13 09:02:28;;;;;;;3.70;1.23;;;;;;;13.35;41.86;99134.47;5057541;28;20124;-81
2021/03/13 09:05:00;;;;;;;4.40;1.05;;;;;;;13.91;40.86;99136.41;5058565;28;20989;-78
2021/03/13 09:07:26;;;;;;;9.48;1.83;;;;;;;13.55;41.52;99144.19;5061289;28;20039;-81
2021/03/13 09:09:56;;;;;;;4.22;1.00;;;;;;;13.25;41.88;99155.13;5057576;28;20048;-80
2021/03/13 09:12:22;;;;;;;3.67;1.00;;;;;;;13.56;41.05;99156.72;5057879;28;20032;-81
2021/03/13 09:14:57;;;;;;;6.22;1.35;;;;;;;13.89;40.54;99180.69;5059567;28;20031;-80
2021/03/13 09:17:25;;;;;;;9.00;1.65;;;;;;;14.31;39.71;99168.66;5074007;28;20043;-83
2021/03/13 09:19:52;;;;;;;6.68;1.30;;;;;;;13.97;40.47;99167.84;5073198;28;20079;-82
2021/03/13 09:22:18;;;;;;;4.75;1.08;;;;;;;14.35;39.79;99169.47;5071874;28;20107;-81
2021/03/13 09:24:54;;;;;;;1.83;1.00;;;;;;;14.59;39.54;99168.19;5074851;28;20063;-80
2021/03/13 09:27:25;;;;;;;3.95;1.20;;;;;;;14.88;39.55;99172.75;5074686;28;20024;-82
2021/03/13 09:29:56;;;;;;;12.65;1.45;;;;;;;14.41;39.81;99167.97;5074228;28;20025;-82
2021/03/13 09:32:23;;;;;;;10.30;2.13;;;;;;;14.46;39.74;99158.63;5073700;28;20029;-83
2021/03/13 09:34:51;;;;;;;5.20;1.10;;;;;;;14.33;39.89;99163.56;5075081;28;20027;-84
2021/03/13 09:37:28;;;;;;;20.85;4.78;;;;;;;14.96;38.51;99182.69;5089991;28;20085;-84
2021/03/13 09:39:58;;;;;;;4.88;1.63;;;;;;;15.34;37.88;99183.38;5072459;28;20024;-84
2021/03/13 09:42:26;;;;;;;6.80;6.10;;;;;;;15.25;37.48;99180.13;5072859;28;20016;-82
2021/03/13 09:45:15;;;;;;;6.50;2.30;;;;;;;15.04;37.25;99188.22;5072917;28;20513;-84
2021/03/13 09:47:48;;;;;;;4.72;1.48;;;;;;;15.10;36.74;99214.22;5074574;28;20027;-83
2021/03/13 09:50:35;;;;;;;10.93;2.42;;;;;;;14.83;37.01;99194.34;5072607;28;20415;-80
2021/03/13 09:53:03;;;;;;;17.45;15.80;;;;;;;15.10;36.53;99209.50;5074564;28;20035;-82
2021/03/13 09:55:29;;;;;;;5.03;1.90;;;;;;;15.24;36.18;99209.63;5073870;28;20028;-82
2021/03/13 09:57:56;;;;;;;6.75;4.93;;;;;;;15.31;35.96;99222.63;5074165;28;20402;-82
2021/03/13 10:00:23;;;;;;;4.40;1.15;;;;;;;15.08;36.10;99235.81;5074305;28;20163;-83
2021/03/13 10:02:50;;;;;;;12.82;4.20;;;;;;;15.22;36.16;99233.19;5073774;28;20028;-84
2021/03/13 10:05:19;;;;;;;7.65;2.92;;;;;;;14.60;37.32;99235.75;5072827;28;20479;-82
2021/03/13 10:07:46;;;;;;;6.35;1.50;;;;;;;14.72;36.98;99249.22;5073645;28;20048;-83
2021/03/13 10:10:23;;;;;;;7.25;1.33;;;;;;;14.48;37.49;99233.22;5073919;28;20029;-84
2021/03/13 10:12:50;;;;;;;3.95;1.20;;;;;;;15.07;36.81;99248.78;5072768;28;20028;-84
2021/03/13 10:15:20;;;;;;;10.73;1.50;;;;;;;15.47;36.42;99260.91;5070428;28;20375;-83
2021/03/13 10:17:53;;;;;;;;;;;;;;;14.99;37.23;99258.13;5074164;28;20474;-84
2021/03/13 10:20:20;;;;;;;6.15;1.42;;;;;;;14.52;37.92;99245.88;5071858;28;19916;-84
2021/03/13 10:22:46;;;;;;;6.10;1.95;;;;;;;15.16;36.88;99253.97;5072773;28;20029;-83
2021/03/13 10:25:12;;;;;;;15.23;1.95;;;;;;;14.68;37.38;99253.88;5072572;28;20112;-82
2021/03/13 10:27:38;;;;;;;3.17;1.38;;;;;;;15.36;36.59;99235.28;5073773;28;20449;-83
2021/03/13 10:30:06;;;;;;;22.80;4.25;;;;;;;15.82;36.09;99249.38;5073931;28;20020;-83
2021/03/13 10:32:34;;;;;;;9.27;1.75;;;;;;;15.59;36.05;99262.56;5073065;28;20029;-83
2021/03/13 10:35:16;;;;;;;5.28;1.50;;;;;;;14.94;36.79;99261.22;5073513;28;20086;-82
2021/03/13 10:37:46;;;;;;;8.98;1.63;;;;;;;15.89;35.59;99263.22;5073858;28;20054;-81
2021/03/13 10:40:28;;;;;;;3.92;1.48;;;;;;;15.88;35.52;99249.81;5072958;28;20028;-82
2021/03/13 10:43:11;;;;;;;7.28;1.50;;;;;;;15.63;35.37;99269.69;5072856;28;20028;-81
2021/03/13 10:45:37;;;;;;;5.30;1.67;;;;;;;16.38;34.78;99261.88;5071617;28;20028;-82
2021/03/13 10:48:07;;;;;;;6.50;1.55;;;;;;;16.08;34.81;99275.91;5073591;28;20524;-82
2021/03/13 10:50:42;;;;;;;3.85;1.27;;;;;;;15.79;34.53;99283.19;5072704;28;20047;-82
2021/03/13 10:53:43;;;;;;;5.55;2.05;;;;;;;16.47;34.17;99276.06;5073449;28;20021;-82
2021/03/13 10:56:14;;;;;;;3.33;0.85;;;;;;;16.32;34.75;99289.03;5011393;28;20043;-81
2021/03/13 10:58:55;;;;;;;33.13;4.40;;;;;;;16.33;33.89;99285.09;5061450;28;20098;-82
2021/03/13 11:01:22;;;;;;;6.53;1.48;;;;;;;16.46;33.77;99293.78;5073007;28;20426;-82
2021/03/13 11:03:49;;;;;;;9.43;2.10;;;;;;;15.97;33.83;99292.38;5072681;28;20419;-82
2021/03/13 11:06:41;;;;;;;3.78;1.23;;;;;;;16.20;32.94;99285.81;5073233;28;20391;-82
2021/03/13 11:09:10;;;;;;;8.95;1.40;;;;;;;16.11;33.07;99293.63;5068625;28;20097;-81
2021/03/13 11:11:37;;;;;;;5.60;1.27;;;;;;;16.25;32.72;99289.00;5073066;28;20028;-82
2021/03/13 11:14:06;;;;;;;14.52;2.65;;;;;;;16.13;33.27;99302.31;5071937;28;20479;-82
2021/03/13 11:16:32;;;;;;;6.47;1.30;;;;;;;16.80;32.66;99299.88;5071745;28;20103;-82
2021/03/13 11:18:59;;;;;;;9.35;2.15;;;;;;;16.71;32.94;99299.47;5069540;28;20107;-81
2021/03/13 11:21:25;;;;;;;4.63;1.52;;;;;;;17.24;32.40;99287.75;5071381;28;20025;-83
2021/03/13 11:23:52;;;;;;;12.48;3.05;;;;;;;17.20;32.41;99309.81;5072995;28;20672;-80
2021/03/13 11:26:19;;;;;;;16.63;2.83;;;;;;;16.77;32.32;99288.81;5070434;28;21344;-80
2021/03/13 11:28:45;;;;;;;10.95;1.77;;;;;;;17.04;32.02;99292.84;5073118;28;20023;-81
2021/03/13 11:31:11;;;;;;;11.30;2.00;;;;;;;17.03;32.49;99291.25;5067455;28;20028;-82
2021/03/13 11:33:36;;;;;;;24.52;4.68;;;;;;;17.48;31.83;99294.47;5070868;28;20074;-81
2021/03/13 11:36:03;;;;;;;7.45;2.30;;;;;;;17.85;31.40;99280.28;5088128;28;20028;-80
2021/03/13 11:38:29;;;;;;;5.32;1.67;;;;;;;16.94;32.44;99284.56;5072711;28;20104;-79
2021/03/13 11:40:55;;;;;;;10.80;2.97;;;;;;;17.24;31.89;99289.72;5069082;28;20487;-80
2021/03/13 11:43:20;;;;;;;7.20;1.85;;;;;;;17.39;32.12;99300.38;5072524;28;20023;-81